This is the latest recevied weather packets stored in our database for station/object VE2JJ-13. If no packets are shown the sender has not sent any weather packets the latest 10 day(s).
| Time | Temp. | Humidity | Pressure | Rain* | Wind** | Luminosity | Snow |
|---|---|---|---|---|---|---|---|
| 1777653616 | 11.11° C | 48% | 1004.2 hPa | 0 mm | - | - | - |
| 1777653318 | 11.11° C | 47% | 1004.2 hPa | 0 mm | - | - | - |
| 1777652984 | 10° C | 48% | 1004.2 hPa | 0 mm | - | - | - |
| 1777652685 | 10.56° C | 48% | 1004.5 hPa | 0 mm | - | - | - |
| 1777652385 | 10.56° C | 50% | 1004.5 hPa | 0 mm | - | - | - |
| 1777652083 | 10° C | 51% | 1004.4 hPa | 0 mm | - | - | - |
| 1777651754 | 9.44° C | 51% | 1004.4 hPa | 0 mm | - | - | - |
| 1777651454 | 9.44° C | 51% | 1004.5 hPa | 0 mm | - | - | - |
| 1777651124 | 9.44° C | 51% | 1004.5 hPa | 0 mm | - | - | - |
| 1777650911 | 9.44° C | 50% | 1004.5 hPa | 0 mm | - | - | - |
| 1777650795 | 9.44° C | 50% | 1004.5 hPa | 0 mm | - | - | - |
| 1777650495 | 11.11° C | 48% | 1004.5 hPa | 0 mm | - | - | - |
| 1777650194 | 10° C | 51% | 1004.5 hPa | 0 mm | - | - | - |
| 1777649893 | 10° C | 50% | 1004.5 hPa | 0 mm | - | - | - |
| 1777649649 | 10.56° C | 48% | 1004.5 hPa | 0 mm | - | - | - |
| 1777649593 | 10.56° C | 48% | 1004.5 hPa | 0 mm | - | - | - |
| 1777649293 | 10.56° C | 50% | 1004.6 hPa | 0 mm | - | - | - |
| 1777648964 | 8.89° C | 52% | 1004.6 hPa | 0 mm | - | - | - |
| 1777648665 | 9.44° C | 52% | 1004.6 hPa | 0 mm | - | - | - |
| 1777648364 | 9.44° C | 51% | 1004.7 hPa | 0 mm | - | - | - |
| 1777648064 | 10° C | 51% | 1004.7 hPa | 0 mm | - | - | - |
| 1777647765 | 10° C | 51% | 1004.8 hPa | 0 mm | - | - | - |
| 1777647469 | 10.56° C | 49% | 1004.8 hPa | 0 mm | - | - | - |
| 1777647134 | 10.56° C | 52% | 1004.7 hPa | 0 mm | - | - | - |
| 1777646835 | 9.44° C | 52% | 1004.7 hPa | 0 mm | - | - | - |
* Rain latest hour (hover to see other rain measurements)
** Current wind speed in m/s (hover to see current wind gust speed)